Terminal Aerodrome Forecast
Issued by NWS

Home | Current Version | Previous Version | Text Only | Print | Product List | Glossary On
Versions: 1 2 3 4 5 6 7 8 9 10 11 12 13 14 15 16 17
000
FTUS46 KEKA 300628 AAA
TAFCEC
TAF AMD
KCEC 300628Z 3006/3106 18008KT P6SM OVC100
     FM301000 VRB03KT 6SM BR BKN010
     FM301600 34007KT P6SM SCT007
     FM301800 33010G20KT P6SM SKC
     FM310400 VRB05KT P6SM SCT007=

USA.gov is the U.S. government's official web portal to all federal, state and local government web resources and services.